createdAt,value
2023-03-06T00:00:36.007Z,15.07
2023-03-06T00:03:03.201Z,14.57
2023-03-06T00:05:30.668Z,16.77
2023-03-06T00:07:57.557Z,14.87
2023-03-06T00:10:27.300Z,15.23
2023-03-06T00:12:59.420Z,14.10
2023-03-06T00:15:27.405Z,13.97
2023-03-06T00:17:55.449Z,15.07
2023-03-06T00:20:24.127Z,13.67
2023-03-06T00:22:51.525Z,13.70
2023-03-06T00:25:21.415Z,13.77
2023-03-06T00:27:49.374Z,12.63
2023-03-06T00:30:22.276Z,11.07
2023-03-06T00:32:52.611Z,12.20
2023-03-06T00:35:19.852Z,11.70
2023-03-06T00:37:46.951Z,12.37
2023-03-06T00:40:16.079Z,11.90
2023-03-06T00:42:43.062Z,11.87
2023-03-06T00:45:10.755Z,12.27
2023-03-06T00:47:38.051Z,12.37
2023-03-06T00:50:06.041Z,11.43
2023-03-06T00:52:33.476Z,11.10
2023-03-06T00:55:00.606Z,11.57
2023-03-06T00:57:27.529Z,13.53
2023-03-06T00:59:54.432Z,12.93
2023-03-06T01:02:22.318Z,12.03
2023-03-06T01:04:49.427Z,13.60
2023-03-06T01:07:16.770Z,13.30
2023-03-06T01:09:43.553Z,14.20
2023-03-06T01:12:10.569Z,15.73
2023-03-06T01:14:37.442Z,15.70
2023-03-06T01:17:05.032Z,16.30
2023-03-06T01:19:31.969Z,15.13
2023-03-06T01:21:58.921Z,14.53
2023-03-06T01:24:26.118Z,15.80
2023-03-06T01:26:53.096Z,14.10
2023-03-06T01:29:21.097Z,15.00
2023-03-06T01:31:48.208Z,15.23
2023-03-06T01:34:15.038Z,13.13
2023-03-06T01:36:42.142Z,13.50
2023-03-06T01:39:09.165Z,12.73
2023-03-06T01:41:36.885Z,12.73
2023-03-06T01:44:03.992Z,13.03
2023-03-06T01:46:35.525Z,12.60
2023-03-06T01:49:26.522Z,13.67
2023-03-06T01:52:02.830Z,13.60
2023-03-06T01:54:38.161Z,13.60
2023-03-06T01:57:33.948Z,14.33
2023-03-06T02:00:17.459Z,16.10
2023-03-06T02:02:54.078Z,13.77
2023-03-06T02:05:22.113Z,7.50
2023-03-06T02:07:50.954Z,3.77
2023-03-06T02:10:19.524Z,3.40
2023-03-06T02:12:47.662Z,3.23
2023-03-06T02:15:17.386Z,2.83
2023-03-06T02:17:46.785Z,2.77
2023-03-06T02:20:26.987Z,2.77
2023-03-06T02:23:28.063Z,2.63
2023-03-06T02:25:55.377Z,2.73
2023-03-06T02:28:23.724Z,2.60
2023-03-06T02:30:54.391Z,2.87
2023-03-06T02:33:25.699Z,3.07
2023-03-06T02:36:06.818Z,3.53
2023-03-06T02:39:03.767Z,3.47
2023-03-06T02:41:30.694Z,3.37
2023-03-06T02:43:57.661Z,3.97
2023-03-06T02:46:24.589Z,3.60
2023-03-06T02:48:51.563Z,3.63
2023-03-06T02:51:19.180Z,3.77
2023-03-06T02:53:46.161Z,3.23
2023-03-06T02:56:13.291Z,2.90
2023-03-06T02:58:40.268Z,2.87
2023-03-06T03:01:08.084Z,2.70
2023-03-06T03:03:35.052Z,2.43
2023-03-06T03:06:05.193Z,2.43
2023-03-06T03:08:32.951Z,2.37
2023-03-06T03:11:00.504Z,2.60
2023-03-06T03:13:27.792Z,2.73
2023-03-06T03:16:09.124Z,2.53
2023-03-06T03:18:37.282Z,2.30
2023-03-06T03:21:11.716Z,2.60
2023-03-06T03:23:38.934Z,2.43
2023-03-06T03:26:08.603Z,2.70
2023-03-06T03:28:35.412Z,2.60
2023-03-06T03:31:08.252Z,2.33
2023-03-06T03:33:36.107Z,2.90
2023-03-06T03:36:05.606Z,2.83
2023-03-06T03:38:33.573Z,3.20
2023-03-06T03:41:04.105Z,3.10
2023-03-06T03:43:32.176Z,3.00
2023-03-06T03:45:59.328Z,5.10
2023-03-06T03:48:26.422Z,3.40
2023-03-06T03:50:53.345Z,3.87
2023-03-06T03:53:20.452Z,4.20
2023-03-06T03:55:48.543Z,3.70
2023-03-06T03:58:15.965Z,4.50
2023-03-06T04:00:42.869Z,4.37
2023-03-06T04:03:09.718Z,4.87
2023-03-06T04:05:37.031Z,4.30
2023-03-06T04:08:04.448Z,5.27
2023-03-06T04:10:32.119Z,5.90
2023-03-06T04:13:03.675Z,6.40
2023-03-06T04:15:30.569Z,6.53
2023-03-06T04:17:57.513Z,7.30
2023-03-06T04:20:24.937Z,7.67
2023-03-06T04:22:51.773Z,9.63
2023-03-06T04:25:18.883Z,10.90
2023-03-06T04:27:46.152Z,11.83
2023-03-06T04:30:13.323Z,12.20
2023-03-06T04:32:40.308Z,12.40
2023-03-06T04:35:07.659Z,13.70
2023-03-06T04:37:34.802Z,12.20
2023-03-06T04:40:01.789Z,10.43
2023-03-06T04:42:29.111Z,11.17
2023-03-06T04:44:56.171Z,10.87
2023-03-06T04:47:23.098Z,10.20
2023-03-06T04:49:50.327Z,12.10
2023-03-06T04:52:17.279Z,11.07
2023-03-06T04:54:44.171Z,11.60
2023-03-06T04:57:11.371Z,11.53
2023-03-06T04:59:39.299Z,13.37
2023-03-06T05:02:06.394Z,15.37
2023-03-06T05:04:33.344Z,14.57
2023-03-06T05:07:00.158Z,15.87
2023-03-06T05:09:27.083Z,14.53
2023-03-06T05:11:54.054Z,16.47
2023-03-06T05:14:21.136Z,15.80
2023-03-06T05:16:48.050Z,14.10
2023-03-06T05:19:15.532Z,16.10
2023-03-06T05:21:42.500Z,16.23
2023-03-06T05:24:09.964Z,17.00
2023-03-06T05:26:37.149Z,17.73
2023-03-06T05:29:06.179Z,16.60
2023-03-06T05:31:33.546Z,15.67
2023-03-06T05:34:00.912Z,15.83
2023-03-06T05:36:28.946Z,16.27
2023-03-06T05:38:56.289Z,15.80
2023-03-06T05:41:26.098Z,14.80
2023-03-06T05:43:54.476Z,15.70
2023-03-06T05:46:21.645Z,16.20
2023-03-06T05:48:48.469Z,14.67
2023-03-06T05:51:15.618Z,18.47
2023-03-06T05:53:44.941Z,16.53
2023-03-06T05:56:11.979Z,15.40
2023-03-06T05:58:39.327Z,15.80
2023-03-06T06:01:11.498Z,17.00
2023-03-06T06:03:41.586Z,15.57
2023-03-06T06:06:10.279Z,15.57
2023-03-06T06:08:37.172Z,15.77
2023-03-06T06:11:08.580Z,15.63
2023-03-06T06:13:36.403Z,13.83
2023-03-06T06:16:19.127Z,15.43
2023-03-06T06:18:46.245Z,14.17
2023-03-06T06:21:17.817Z,16.00
2023-03-06T06:23:44.946Z,15.33
2023-03-06T06:26:14.424Z,15.47
2023-03-06T06:28:41.389Z,15.87
2023-03-06T06:31:13.152Z,16.80
2023-03-06T06:33:41.128Z,19.83
2023-03-06T06:36:21.420Z,22.53
2023-03-06T06:38:49.712Z,23.47
2023-03-06T06:44:08.924Z,18.07
2023-03-06T06:49:23.589Z,21.40
2023-03-06T06:51:50.690Z,19.10
2023-03-06T06:54:18.981Z,18.60
2023-03-06T06:56:48.709Z,16.83
2023-03-06T06:59:17.391Z,17.03
2023-03-06T07:01:46.182Z,20.87
2023-03-06T07:04:15.542Z,21.27
2023-03-06T07:06:43.102Z,15.07
2023-03-06T07:09:10.247Z,15.83
2023-03-06T07:11:38.664Z,16.43
2023-03-06T07:14:06.121Z,26.80
2023-03-06T07:16:33.173Z,17.73
2023-03-06T07:19:00.142Z,16.10
2023-03-06T07:21:27.082Z,15.17
2023-03-06T07:23:54.657Z,16.93
2023-03-06T07:26:23.584Z,16.07
2023-03-06T07:28:53.828Z,22.03
2023-03-06T07:31:27.113Z,15.50
2023-03-06T07:33:55.012Z,15.80
2023-03-06T07:36:24.026Z,15.20
2023-03-06T07:38:50.860Z,15.93
2023-03-06T07:41:22.169Z,15.13
2023-03-06T07:43:50.423Z,16.60
2023-03-06T07:46:17.566Z,16.10
2023-03-06T07:48:44.893Z,15.60
2023-03-06T07:51:20.964Z,15.70
2023-03-06T07:53:49.318Z,15.57
2023-03-06T07:56:16.302Z,15.87
2023-03-06T07:58:47.017Z,16.03
2023-03-06T08:01:17.206Z,14.60
2023-03-06T08:03:44.488Z,13.20
2023-03-06T08:06:14.392Z,13.03
2023-03-06T08:08:43.757Z,11.87
2023-03-06T08:11:12.469Z,11.93
2023-03-06T08:13:42.888Z,12.50
2023-03-06T08:16:10.438Z,12.47
2023-03-06T08:18:40.061Z,11.67
2023-03-06T08:21:16.153Z,10.87
2023-03-06T08:23:44.223Z,11.93
2023-03-06T08:26:16.488Z,11.30
2023-03-06T08:28:43.634Z,11.53
2023-03-06T08:31:24.721Z,12.10
2023-03-06T08:33:51.904Z,10.97
2023-03-06T08:36:19.493Z,10.20
2023-03-06T08:38:46.771Z,11.00
2023-03-06T08:41:16.485Z,11.73
2023-03-06T08:43:43.848Z,11.10
2023-03-06T08:46:12.457Z,11.20
2023-03-06T08:48:39.369Z,11.00
2023-03-06T08:51:08.247Z,12.43
2023-03-06T08:53:43.165Z,10.00
2023-03-06T08:56:16.685Z,10.07
2023-03-06T08:58:43.640Z,9.60
2023-03-06T09:01:15.824Z,10.93
2023-03-06T09:03:44.291Z,10.70
2023-03-06T09:06:11.679Z,8.73
2023-03-06T09:08:38.774Z,8.70
2023-03-06T09:11:05.937Z,8.37
2023-03-06T09:13:33.063Z,8.37
2023-03-06T09:16:00.154Z,7.23
2023-03-06T09:18:26.866Z,7.00
2023-03-06T09:20:56.960Z,7.57
2023-03-06T09:23:25.023Z,7.80
2023-03-06T09:25:56.686Z,7.93
2023-03-06T09:28:24.686Z,7.10
2023-03-06T09:30:52.503Z,6.90
2023-03-06T09:33:20.045Z,6.87
2023-03-06T09:36:00.324Z,6.00
2023-03-06T09:38:29.313Z,5.93
2023-03-06T09:41:01.959Z,5.57
2023-03-06T09:43:35.767Z,4.80
2023-03-06T09:46:40.067Z,4.23
2023-03-06T09:49:44.893Z,4.07
2023-03-06T09:52:31.614Z,3.97
2023-03-06T09:55:09.835Z,3.90
2023-03-06T09:57:56.663Z,3.20
2023-03-06T10:00:53.018Z,3.60
2023-03-06T10:03:39.763Z,3.23
2023-03-06T10:06:18.838Z,3.23
2023-03-06T10:09:02.910Z,3.57
2023-03-06T10:11:44.078Z,3.63
2023-03-06T10:14:20.855Z,2.90
2023-03-06T10:16:51.003Z,3.40
2023-03-06T10:19:20.849Z,7.00
2023-03-06T10:22:04.708Z,8.43
2023-03-06T10:24:55.042Z,3.27
2023-03-06T10:27:34.189Z,3.37
2023-03-06T10:30:39.982Z,3.23
2023-03-06T10:33:09.819Z,2.50
2023-03-06T10:35:56.489Z,2.37
2023-03-06T10:38:28.041Z,2.07
2023-03-06T10:41:12.953Z,2.00
2023-03-06T10:43:42.600Z,1.90
2023-03-06T10:46:12.305Z,2.00
2023-03-06T10:48:42.843Z,1.60
2023-03-06T10:51:18.923Z,1.63
2023-03-06T10:53:56.048Z,1.70
2023-03-06T10:56:32.850Z,1.70
2023-03-06T10:59:06.899Z,1.57
2023-03-06T11:01:34.787Z,1.30
2023-03-06T11:04:31.760Z,1.83
2023-03-06T11:07:08.138Z,1.53
2023-03-06T11:09:36.039Z,1.10
2023-03-06T11:12:36.813Z,1.17
2023-03-06T11:15:23.541Z,0.90
2023-03-06T11:18:00.518Z,1.20
2023-03-06T11:20:55.690Z,1.23
2023-03-06T11:23:39.372Z,0.97
2023-03-06T11:26:22.102Z,1.07
2023-03-06T11:29:03.099Z,0.90
2023-03-06T11:31:34.111Z,1.10
2023-03-06T11:34:23.399Z,1.10
2023-03-06T11:36:58.945Z,1.10
2023-03-06T11:39:36.439Z,1.07
2023-03-06T11:42:12.627Z,1.40
2023-03-06T11:45:02.860Z,1.80
2023-03-06T11:47:37.178Z,1.50
2023-03-06T11:50:19.268Z,1.53
2023-03-06T11:52:54.909Z,1.20
2023-03-06T11:56:07.787Z,1.30
2023-03-06T11:59:16.371Z,1.07
2023-03-06T12:02:20.633Z,1.07
2023-03-06T12:05:05.975Z,0.83
2023-03-06T12:07:50.965Z,1.00
2023-03-06T12:10:24.902Z,0.80
2023-03-06T12:13:03.480Z,0.80
2023-03-06T12:16:06.467Z,0.97
2023-03-06T12:19:18.232Z,1.00
2023-03-06T12:21:54.693Z,0.80
2023-03-06T12:24:49.989Z,0.83
2023-03-06T12:27:31.994Z,0.60
2023-03-06T12:30:04.892Z,0.80
2023-03-06T12:32:54.177Z,1.10
2023-03-06T12:35:21.500Z,0.87
2023-03-06T12:38:25.878Z,1.23
2023-03-06T12:41:31.251Z,0.90
2023-03-06T12:44:21.258Z,1.17
2023-03-06T12:46:55.293Z,1.30
2023-03-06T12:49:33.060Z,1.20
2023-03-06T12:52:04.384Z,0.90
2023-03-06T12:54:35.605Z,0.97
2023-03-06T12:57:03.090Z,0.73
2023-03-06T12:59:50.179Z,0.50
2023-03-06T13:02:17.673Z,0.80
2023-03-06T13:04:55.699Z,0.70
2023-03-06T13:07:36.969Z,1.07
2023-03-06T13:10:21.753Z,1.00
2023-03-06T13:12:58.529Z,0.97
2023-03-06T13:16:04.206Z,0.73
2023-03-06T13:18:34.221Z,0.93
2023-03-06T13:21:02.141Z,0.87
2023-03-06T13:23:39.160Z,0.93
2023-03-06T13:26:32.891Z,0.80
2023-03-06T13:28:59.878Z,1.00
2023-03-06T13:31:52.189Z,1.00
2023-03-06T13:34:43.631Z,1.07
2023-03-06T13:37:23.636Z,0.80
2023-03-06T13:39:57.079Z,1.20
2023-03-06T13:42:38.282Z,0.80
2023-03-06T13:45:16.469Z,1.10
2023-03-06T13:50:46.457Z,0.80
2023-03-06T13:53:25.421Z,1.00
2023-03-06T13:56:08.637Z,1.17
2023-03-06T13:58:58.829Z,0.60
2023-03-06T14:02:02.024Z,1.17
2023-03-06T14:04:44.963Z,1.00
2023-03-06T14:07:31.861Z,1.10
2023-03-06T14:10:14.196Z,1.33
2023-03-06T14:12:51.376Z,1.33
2023-03-06T14:15:22.921Z,1.10
2023-03-06T14:18:24.298Z,1.10
2023-03-06T14:21:01.134Z,1.27
2023-03-06T14:23:30.719Z,1.07
2023-03-06T14:26:07.919Z,0.90
2023-03-06T14:28:39.441Z,0.80
2023-03-06T14:31:07.356Z,0.90
2023-03-06T14:33:59.745Z,1.10
2023-03-06T14:36:35.842Z,0.90
2023-03-06T14:39:15.005Z,1.10
2023-03-06T14:41:42.006Z,0.90
2023-03-06T14:44:16.905Z,0.90
2023-03-06T14:46:55.383Z,1.10
2023-03-06T14:49:25.212Z,0.90
2023-03-06T14:51:55.970Z,0.70
2023-03-06T14:54:28.801Z,0.90
2023-03-06T14:57:06.379Z,1.20
2023-03-06T14:59:45.667Z,0.90
2023-03-06T15:02:19.656Z,1.17
2023-03-06T15:04:51.658Z,0.90
2023-03-06T15:07:24.418Z,1.17
2023-03-06T15:09:56.483Z,0.90
2023-03-06T15:12:34.562Z,1.30
2023-03-06T15:15:10.701Z,1.43
2023-03-06T15:17:42.370Z,0.83
2023-03-06T15:20:42.226Z,0.80
2023-03-06T15:23:22.632Z,0.90
2023-03-06T15:25:58.713Z,1.00
2023-03-06T15:28:33.586Z,1.10
2023-03-06T15:31:21.302Z,0.90
2023-03-06T15:34:24.022Z,0.97
2023-03-06T15:36:56.864Z,1.00
2023-03-06T15:39:34.714Z,1.33
2023-03-06T15:42:18.845Z,1.30
2023-03-06T15:45:19.352Z,1.00
2023-03-06T15:47:48.396Z,1.13
2023-03-06T15:50:17.095Z,1.50
2023-03-06T15:52:46.394Z,1.47
2023-03-06T15:55:15.499Z,1.00
2023-03-06T15:57:51.153Z,0.77
2023-03-06T16:00:34.378Z,0.90
2023-03-06T16:03:21.092Z,0.90
2023-03-06T16:05:48.189Z,0.97
2023-03-06T16:08:15.454Z,0.83
2023-03-06T16:10:44.772Z,0.90
2023-03-06T16:13:16.616Z,1.00
2023-03-06T16:15:54.291Z,0.90
2023-03-06T16:18:21.067Z,1.13
2023-03-06T16:20:47.966Z,1.20
2023-03-06T16:23:16.359Z,2.50
2023-03-06T16:25:48.471Z,3.80
2023-03-06T16:28:17.135Z,2.30
2023-03-06T16:30:45.204Z,2.13
2023-03-06T16:33:13.119Z,3.37
2023-03-06T16:35:41.444Z,3.30
2023-03-06T16:38:10.470Z,3.90
2023-03-06T16:40:41.292Z,3.83
2023-03-06T16:43:10.746Z,3.40
2023-03-06T16:45:39.926Z,3.07
2023-03-06T16:48:07.765Z,2.50
2023-03-06T16:50:38.538Z,2.80
2023-03-06T16:53:05.897Z,3.00
2023-03-06T16:55:33.088Z,3.50
2023-03-06T16:58:00.487Z,4.87
2023-03-06T17:00:33.415Z,5.10
2023-03-06T17:03:01.802Z,3.80
2023-03-06T17:05:29.063Z,3.93
2023-03-06T17:07:56.779Z,4.23
2023-03-06T17:10:26.545Z,4.07
2023-03-06T17:12:54.494Z,3.60
2023-03-06T17:15:21.267Z,4.30
2023-03-06T17:17:48.861Z,4.70
2023-03-06T17:20:15.966Z,6.57
2023-03-06T17:22:42.916Z,7.77
2023-03-06T17:25:10.438Z,6.60
2023-03-06T17:27:38.473Z,5.30
2023-03-06T17:30:09.174Z,6.80
2023-03-06T17:32:38.450Z,10.50
2023-03-06T17:35:09.517Z,13.30
2023-03-06T17:37:36.769Z,7.40
2023-03-06T17:40:04.164Z,4.60
2023-03-06T17:42:31.246Z,5.43
2023-03-06T17:44:58.240Z,5.93
2023-03-06T17:47:25.077Z,4.97
2023-03-06T17:49:51.999Z,6.10
2023-03-06T17:52:18.929Z,5.20
2023-03-06T17:54:46.468Z,5.30
2023-03-06T17:57:13.499Z,4.97
2023-03-06T17:59:41.663Z,5.10
2023-03-06T18:02:10.214Z,4.13
2023-03-06T18:04:37.237Z,3.90
2023-03-06T18:07:04.290Z,5.40
2023-03-06T18:09:31.298Z,6.53
2023-03-06T18:11:59.568Z,5.30
2023-03-06T18:14:26.723Z,4.10
2023-03-06T18:16:53.742Z,3.50
2023-03-06T18:19:20.926Z,3.30
2023-03-06T18:21:48.061Z,3.37
2023-03-06T18:24:14.822Z,3.20
2023-03-06T18:26:46.058Z,3.20
2023-03-06T18:29:13.437Z,3.70
2023-03-06T18:31:42.619Z,3.27
2023-03-06T18:34:13.572Z,3.60
2023-03-06T18:36:42.579Z,3.10
2023-03-06T18:39:12.274Z,3.20
2023-03-06T18:41:39.224Z,3.70
2023-03-06T18:44:06.568Z,10.70
2023-03-06T18:46:38.360Z,6.27
2023-03-06T18:49:08.590Z,4.60
2023-03-06T18:51:35.759Z,4.33
2023-03-06T18:54:05.983Z,3.87
2023-03-06T18:56:34.204Z,3.10
2023-03-06T18:59:05.978Z,3.90
2023-03-06T19:01:33.861Z,3.30
2023-03-06T19:04:04.989Z,2.90
2023-03-06T19:06:31.984Z,2.80
2023-03-06T19:08:59.008Z,2.77
2023-03-06T19:11:26.983Z,2.60
2023-03-06T19:13:54.209Z,2.47
2023-03-06T19:16:26.366Z,2.40
2023-03-06T19:18:56.048Z,2.50
2023-03-06T19:21:29.188Z,2.50
2023-03-06T19:23:56.830Z,2.70
2023-03-06T19:26:24.593Z,2.57
2023-03-06T19:28:53.051Z,2.50
2023-03-06T19:31:25.586Z,2.00
2023-03-06T19:33:57.102Z,2.60
2023-03-06T19:36:27.881Z,2.50
2023-03-06T19:38:58.857Z,2.50
2023-03-06T19:41:27.210Z,2.60
2023-03-06T19:43:56.886Z,2.70
2023-03-06T19:46:24.921Z,2.90
2023-03-06T19:48:57.166Z,3.30
2023-03-06T19:51:25.170Z,2.77
2023-03-06T19:53:52.847Z,3.03
2023-03-06T19:56:26.386Z,3.20
2023-03-06T19:58:53.691Z,2.67
2023-03-06T20:01:23.082Z,2.70
2023-03-06T20:03:51.295Z,2.80
2023-03-06T20:06:19.686Z,2.80
2023-03-06T20:08:47.725Z,2.67
2023-03-06T20:11:19.726Z,3.00
2023-03-06T20:13:47.742Z,2.43
2023-03-06T20:16:16.271Z,2.60
2023-03-06T20:18:43.670Z,2.27
2023-03-06T20:21:10.517Z,2.60
2023-03-06T20:23:37.305Z,2.87
2023-03-06T20:26:06.678Z,2.63
2023-03-06T20:28:39.256Z,2.80
2023-03-06T20:31:18.574Z,2.60
2023-03-06T20:33:47.256Z,2.27
2023-03-06T20:36:20.519Z,2.57
2023-03-06T20:38:47.829Z,3.00
2023-03-06T20:41:23.624Z,2.90
2023-03-06T20:43:50.801Z,3.00
2023-03-06T20:46:18.916Z,3.10
2023-03-06T20:48:48.877Z,3.17
2023-03-06T20:51:20.166Z,3.33
2023-03-06T20:53:48.236Z,3.60
2023-03-06T20:56:18.001Z,2.77
2023-03-06T20:58:45.403Z,3.33
2023-03-06T21:01:19.229Z,3.60
2023-03-06T21:03:46.118Z,3.80
2023-03-06T21:06:13.033Z,3.80
2023-03-06T21:08:40.120Z,3.83
2023-03-06T21:11:07.208Z,3.70
2023-03-06T21:13:34.376Z,3.90
2023-03-06T21:16:10.338Z,3.70
2023-03-06T21:18:37.663Z,4.13
2023-03-06T21:21:08.928Z,4.33
2023-03-06T21:23:35.744Z,4.57
2023-03-06T21:26:03.141Z,4.63
2023-03-06T21:28:30.711Z,4.33
2023-03-06T21:31:03.390Z,4.70
2023-03-06T21:33:30.370Z,5.00
2023-03-06T21:35:57.556Z,4.80
2023-03-06T21:38:25.050Z,4.70
2023-03-06T21:40:52.069Z,5.63
2023-03-06T21:43:19.044Z,6.30
2023-03-06T21:45:47.475Z,5.17
2023-03-06T21:48:18.093Z,4.50
2023-03-06T21:50:45.070Z,6.00
2023-03-06T21:53:12.002Z,5.20
2023-03-06T21:55:43.064Z,4.70
2023-03-06T21:58:10.356Z,5.47
2023-03-06T22:00:38.474Z,4.90
2023-03-06T22:03:05.528Z,5.63
2023-03-06T22:05:32.553Z,4.90
2023-03-06T22:07:59.626Z,5.10
2023-03-06T22:10:26.680Z,5.50
2023-03-06T22:12:53.632Z,5.50
2023-03-06T22:15:21.989Z,4.90
2023-03-06T22:17:49.126Z,5.27
2023-03-06T22:20:16.327Z,5.03
2023-03-06T22:22:44.083Z,5.80
2023-03-06T22:25:12.127Z,5.10
2023-03-06T22:27:39.213Z,5.53
2023-03-06T22:30:07.077Z,6.00
2023-03-06T22:32:34.168Z,6.23
2023-03-06T22:35:01.091Z,6.33
2023-03-06T22:37:27.925Z,7.07
2023-03-06T22:39:56.327Z,6.80
2023-03-06T22:42:23.231Z,8.07
2023-03-06T22:44:49.977Z,8.27
2023-03-06T22:47:16.755Z,9.30
2023-03-06T22:49:43.666Z,8.33
2023-03-06T22:52:10.423Z,10.03
2023-03-06T22:54:40.225Z,10.60
2023-03-06T22:57:07.115Z,9.80
2023-03-06T22:59:47.264Z,10.50
2023-03-06T23:02:14.232Z,11.67
2023-03-06T23:04:41.272Z,11.47
2023-03-06T23:07:09.387Z,12.00
2023-03-06T23:09:41.293Z,13.93
2023-03-06T23:12:09.237Z,14.53
2023-03-06T23:14:36.075Z,14.63
2023-03-06T23:17:02.979Z,14.77
2023-03-06T23:19:29.929Z,18.27
2023-03-06T23:21:56.993Z,18.17
2023-03-06T23:24:24.027Z,18.67
2023-03-06T23:26:51.104Z,19.73
2023-03-06T23:29:18.042Z,22.00
2023-03-06T23:31:45.112Z,22.50
2023-03-06T23:34:11.985Z,22.07
2023-03-06T23:36:38.836Z,22.37
2023-03-06T23:39:05.705Z,23.03
2023-03-06T23:41:32.857Z,24.53
2023-03-06T23:43:59.802Z,24.50
2023-03-06T23:46:26.763Z,25.50
2023-03-06T23:48:53.636Z,27.73
2023-03-06T23:51:22.205Z,27.33
2023-03-06T23:53:55.528Z,28.33
2023-03-06T23:56:23.452Z,28.77
2023-03-06T23:58:50.618Z,28.40
